Main page
METAR-TAF:

METAR-TAF

Airports :

Nakhon Ratchasima Airport

Nakhon Ratchasima, Thailand

latitude: 14-56-58N, longitude: 102-18-45E, elevation: 233 m

Current weather observation

The report was made 11 minutes ago, at 04:00 UTC
Wind 9 kt from the East/Northeast, varying between North and East
Temperature 29°C
Humidity 48%
Pressure 1022 hPa
Visibility 10 km or more
no clouds below 1500 m and no cumulonimbus

METAR: VTUQ 210400Z 06009KT 350V100 CAVOK 29/17 Q1022 NOSIG

Time: 11:11 (04:11 UTC)

Forecast

The report was made 5 hours and 11 minutes ago, at 23:00 UTC
Forecast valid from 21 at 00 UTC to 21 at 24 UTC
Wind 7 kt from the East/Northeast
Visibility: 9000 m

TAF: VTUQ 202300Z 2100/2124 06007KT 9000 NSC

Weather observations and forecasts of more than 4000 airports (METAR and TAF reports).

The available stations are represented by yellow and red dots on the map.

Hover mouse over dot to see the name of the station.

Then click to see weather observations and forecasts.

To change the map : click on the green buttons with a black cross to zoom in, on the green button with a dash to zoom out, or on the green arrows for adjacent maps.


METAR-TAF: